ENGINEERING TRACK TESTING
Weather & Rail Temperature Monitoring

Weather station park

Park Interlocking (Parksburg PA)

Measurement History

Home Current History Weekly graphs

,

to download data from the start of , to the end of ,

Conditions for past 24 hours (since 09/01/2026 02:21 AM)

Time Track 1 S rail Track 1 N rail Industrial Track S rail Industrial Track N rail Outside Air
Temperature
Solar
Radiation
Max. Wind Humidity Air Pressure Rain
SpeedDir
09/01/2026 08:00 PM 87 °F 85 °F 87 °F 87 °F 78.7 °F 0 watt/m2 24 mph NNE 70 % 29.468 in Hg 0.13 in
09/01/2026 07:45 PM 94 °F 94 °F 94 °F 94 °F 85.9 °F 8 watt/m2 3 mph SW 69 % 29.422 in Hg 0 in
09/01/2026 07:30 PM 95 °F 96 °F 95 °F 95 °F 86.6 °F 32 watt/m2 2 mph SW 69 % 29.38 in Hg 0 in
09/01/2026 07:15 PM 97 °F 97 °F 97 °F 97 °F 87.1 °F 63 watt/m2 2 mph SW 69 % 29.422 in Hg 0 in
09/01/2026 07:00 PM 98 °F 98 °F 98 °F 98 °F 87.7 °F 63 watt/m2 3 mph SW 69 % 29.418 in Hg 0 in
09/01/2026 06:45 PM 99 °F 99 °F 99 °F 99 °F 88.2 °F 74 watt/m2 2 mph SW 68 % 29.425 in Hg 0 in
09/01/2026 06:30 PM 100 °F 101 °F 101 °F 100 °F 88.6 °F 91 watt/m2 3 mph SW 68 % 29.433 in Hg 0 in
09/01/2026 06:15 PM 101 °F 102 °F 102 °F 101 °F 89.1 °F 144 watt/m2 3 mph SW 68 % 29.425 in Hg 0 in
09/01/2026 06:00 PM 102 °F 103 °F 103 °F 102 °F 89.7 °F 154 watt/m2 3 mph SW 68 % 29.428 in Hg 0 in
09/01/2026 05:45 PM 103 °F 104 °F 104 °F 103 °F 90.1 °F 184 watt/m2 4 mph SW 67 % 29.431 in Hg 0 in
09/01/2026 05:30 PM 104 °F 104 °F 105 °F 104 °F 90.2 °F 263 watt/m2 4 mph SW 67 % 29.431 in Hg 0 in
09/01/2026 05:15 PM 105 °F 105 °F 106 °F 105 °F 90.2 °F 348 watt/m2 6 mph SW 66 % 29.43 in Hg 0 in
09/01/2026 05:00 PM 105 °F 105 °F 106 °F 105 °F 90.1 °F 374 watt/m2 6 mph SSW 67 % 29.433 in Hg 0 in
09/01/2026 04:45 PM 105 °F 105 °F 106 °F 105 °F 89.2 °F 412 watt/m2 6 mph SW 67 % 29.434 in Hg 0 in
09/01/2026 04:30 PM 105 °F 105 °F 106 °F 105 °F 88.3 °F 433 watt/m2 7 mph SW 68 % 29.438 in Hg 0 in
09/01/2026 04:15 PM 106 °F 106 °F 107 °F 106 °F 88 °F 271 watt/m2 7 mph SW 68 % 29.444 in Hg 0 in
09/01/2026 04:00 PM 107 °F 107 °F 108 °F 107 °F 87.5 °F 250 watt/m2 7 mph W 69 % 29.448 in Hg 0 in
09/01/2026 03:45 PM 108 °F 107 °F 109 °F 108 °F 87.5 °F 246 watt/m2 9 mph WSW 68 % 29.449 in Hg 0 in
09/01/2026 03:30 PM 110 °F 110 °F 111 °F 110 °F 88.5 °F 224 watt/m2 6 mph WSW 67 % 29.458 in Hg 0 in
09/01/2026 03:15 PM 113 °F 112 °F 113 °F 112 °F 89.3 °F 222 watt/m2 10 mph W 65 % 29.459 in Hg 0 in
09/01/2026 03:00 PM 114 °F 113 °F 114 °F 114 °F 89.6 °F 726 watt/m2 10 mph WSW 65 % 29.462 in Hg 0 in
09/01/2026 02:45 PM 113 °F 112 °F 114 °F 112 °F 89.2 °F 526 watt/m2 6 mph WSW 66 % 29.466 in Hg 0 in
09/01/2026 02:30 PM 114 °F 113 °F 114 °F 113 °F 89.6 °F 726 watt/m2 9 mph SW 66 % 29.469 in Hg 0 in
09/01/2026 02:15 PM 113 °F 112 °F 113 °F 112 °F 89 °F 467 watt/m2 7 mph W 66 % 29.466 in Hg 0 in
09/01/2026 02:00 PM 113 °F 112 °F 113 °F 112 °F 89.1 °F 758 watt/m2 7 mph W 65 % 29.466 in Hg 0 in
09/01/2026 01:45 PM 111 °F 110 °F 111 °F 110 °F 88.5 °F 845 watt/m2 6 mph SSE 67 % 29.469 in Hg 0 in
09/01/2026 01:30 PM 107 °F 106 °F 107 °F 106 °F 87.3 °F 795 watt/m2 5 mph S 69 % 29.467 in Hg 0 in
09/01/2026 01:15 PM 103 °F 102 °F 103 °F 103 °F 85.6 °F 800 watt/m2 5 mph SSE 68 % 29.469 in Hg 0 in
09/01/2026 01:00 PM 98 °F 98 °F 98 °F 98 °F 83.9 °F 674 watt/m2 6 mph S 64 % 29.477 in Hg 0 in
09/01/2026 12:45 PM 94 °F 93 °F 93 °F 93 °F 82.5 °F 780 watt/m2 4 mph SW 59 % 29.486 in Hg 0 in
09/01/2026 12:30 PM 90 °F 90 °F 91 °F 90 °F 81.7 °F 242 watt/m2 3 mph SW 57 % 29.495 in Hg 0 in
09/01/2026 12:15 PM 90 °F 90 °F 90 °F 89 °F 81.4 °F 117 watt/m2 2 mph WSW 59 % 29.496 in Hg 0 in
09/01/2026 12:00 PM 90 °F 90 °F 91 °F 90 °F 81.1 °F 171 watt/m2 3 mph WSW 61 % 29.5 in Hg 0 in
09/01/2026 11:45 AM 91 °F 91 °F 91 °F 90 °F 81 °F 189 watt/m2 2 mph WSW 61 % 29.5 in Hg 0 in
09/01/2026 11:30 AM 91 °F 91 °F 92 °F 91 °F 81 °F 107 watt/m2 2 mph WSW 61 % 29.496 in Hg 0 in
09/01/2026 11:15 AM 93 °F 92 °F 93 °F 92 °F 81 °F 92 watt/m2 4 mph WSW 62 % 29.5 in Hg 0 in
09/01/2026 11:00 AM 93 °F 93 °F 93 °F 93 °F 80.8 °F 209 watt/m2 5 mph SW 59 % 29.5 in Hg 0 in
09/01/2026 10:45 AM 93 °F 92 °F 93 °F 92 °F 80 °F 526 watt/m2 6 mph SW 45 % 29.506 in Hg 0.01 in
09/01/2026 10:30 AM 88 °F 87 °F 88 °F 87 °F 78.4 °F 530 watt/m2 5 mph WSW 27 % 29.501 in Hg 0 in
09/01/2026 10:15 AM 84 °F 84 °F 84 °F 83 °F 77.1 °F 325 watt/m2 5 mph SW 22 % 29.505 in Hg 0 in
09/01/2026 10:00 AM 81 °F 81 °F 81 °F 81 °F 76 °F 294 watt/m2 6 mph W 22 % 29.505 in Hg 0 in
09/01/2026 09:45 AM 78 °F 78 °F 78 °F 78 °F 75.7 °F 308 watt/m2 3 mph SSW 19 % 29.512 in Hg 0 in
09/01/2026 09:30 AM 76 °F 77 °F 76 °F 76 °F 75 °F 151 watt/m2 2 mph SSW 21 % 29.509 in Hg 0 in
09/01/2026 09:15 AM 76 °F 76 °F 76 °F 76 °F 74.6 °F 91 watt/m2 2 mph SSW 22 % 29.509 in Hg 0 in
09/01/2026 09:00 AM 76 °F 76 °F 76 °F 76 °F 74.5 °F 62 watt/m2 2 mph SSW 22 % 29.51 in Hg 0 in
09/01/2026 08:45 AM 76 °F 76 °F 75 °F 76 °F 74.3 °F 68 watt/m2 4 mph S 21 % 29.513 in Hg 0 in
09/01/2026 08:30 AM 76 °F 76 °F 75 °F 75 °F 74.1 °F 87 watt/m2 4 mph S 22 % 29.517 in Hg 0 in
09/01/2026 08:15 AM 75 °F 75 °F 74 °F 75 °F 74 °F 120 watt/m2 3 mph S 21 % 29.514 in Hg 0 in
09/01/2026 08:00 AM 74 °F 74 °F 74 °F 74 °F 73.8 °F 117 watt/m2 3 mph S 21 % 29.516 in Hg 0 in
09/01/2026 07:45 AM 73 °F 73 °F 72 °F 72 °F 73.3 °F 121 watt/m2 3 mph SSE 21 % 29.515 in Hg 0 in
09/01/2026 07:30 AM 72 °F 72 °F 71 °F 71 °F 72.6 °F 64 watt/m2 1 mph ESE 24 % 29.523 in Hg 0 in
09/01/2026 07:15 AM 71 °F 71 °F 70 °F 71 °F 72.3 °F 38 watt/m2 1 mph ESE 24 % 29.52 in Hg 0 in
09/01/2026 07:00 AM 71 °F 71 °F 70 °F 70 °F 72.1 °F 24 watt/m2 0 mph --- 26 % 29.517 in Hg 0 in
09/01/2026 06:45 AM 70 °F 71 °F 70 °F 70 °F 72 °F 6 watt/m2 0 mph --- 26 % 29.515 in Hg 0 in
09/01/2026 06:30 AM 70 °F 71 °F 70 °F 70 °F 72 °F 0 watt/m2 0 mph --- 26 % 29.512 in Hg 0 in
09/01/2026 06:15 AM 71 °F 71 °F 70 °F 70 °F 72.1 °F 0 watt/m2 0 mph --- 27 % 29.518 in Hg 0 in
09/01/2026 06:00 AM 71 °F 71 °F 70 °F 70 °F 72.1 °F 0 watt/m2 1 mph ESE 27 % 29.513 in Hg 0 in
09/01/2026 05:45 AM 71 °F 71 °F 70 °F 70 °F 72.2 °F 0 watt/m2 0 mph --- 27 % 29.517 in Hg 0 in
09/01/2026 05:30 AM 71 °F 71 °F 70 °F 71 °F 72.4 °F 0 watt/m2 0 mph --- 27 % 29.518 in Hg 0 in
09/01/2026 05:15 AM 71 °F 71 °F 71 °F 71 °F 72.5 °F 0 watt/m2 0 mph --- 27 % 29.516 in Hg 0 in
09/01/2026 05:00 AM 71 °F 72 °F 71 °F 71 °F 72.6 °F 0 watt/m2 0 mph --- 27 % 29.521 in Hg 0 in
09/01/2026 04:45 AM 71 °F 72 °F 71 °F 71 °F 72.6 °F 0 watt/m2 0 mph --- 27 % 29.524 in Hg 0 in
09/01/2026 04:30 AM 71 °F 72 °F 71 °F 71 °F 72.5 °F 0 watt/m2 0 mph --- 27 % 29.525 in Hg 0 in
09/01/2026 04:15 AM 71 °F 72 °F 71 °F 71 °F 72.5 °F 0 watt/m2 0 mph --- 28 % 29.523 in Hg 0 in
09/01/2026 04:00 AM 71 °F 72 °F 71 °F 71 °F 72.4 °F 0 watt/m2 0 mph --- 28 % 29.524 in Hg 0 in
09/01/2026 03:45 AM 72 °F 72 °F 71 °F 71 °F 72.4 °F 0 watt/m2 0 mph --- 28 % 29.522 in Hg 0 in
09/01/2026 03:30 AM 72 °F 72 °F 71 °F 71 °F 72.3 °F 0 watt/m2 0 mph --- 29 % 29.522 in Hg 0 in
09/01/2026 03:15 AM 72 °F 72 °F 71 °F 71 °F 72.2 °F 0 watt/m2 0 mph --- 29 % 29.522 in Hg 0 in
09/01/2026 03:00 AM 72 °F 72 °F 71 °F 71 °F 72.2 °F 0 watt/m2 0 mph --- 30 % 29.528 in Hg 0 in
09/01/2026 02:45 AM 72 °F 72 °F 71 °F 72 °F 72.2 °F 0 watt/m2 0 mph --- 30 % 29.532 in Hg 0 in
09/01/2026 02:30 AM 72 °F 72 °F 71 °F 72 °F 72.2 °F 0 watt/m2 2 mph ESE 30 % 29.536 in Hg 0 in

Alarms Station information Line AH Subdivision LANCASTER